createdAt,value
2018-03-20T00:00:51.806Z,21.90
2018-03-20T00:03:24.809Z,26.60
2018-03-20T00:05:57.963Z,27.80
2018-03-20T00:08:30.409Z,23.00
2018-03-20T00:11:03.605Z,22.20
2018-03-20T00:13:36.007Z,19.33
2018-03-20T00:16:08.371Z,20.83
2018-03-20T00:18:41.589Z,23.73
2018-03-20T00:21:14.017Z,18.13
2018-03-20T00:23:46.381Z,25.93
2018-03-20T00:26:19.445Z,24.43
2018-03-20T00:28:52.032Z,23.50
2018-03-20T00:31:24.529Z,26.03
2018-03-20T00:33:56.842Z,24.30
2018-03-20T00:36:29.240Z,28.17
2018-03-20T00:39:02.298Z,23.93
2018-03-20T00:41:34.792Z,20.57
2018-03-20T00:44:07.192Z,23.30
2018-03-20T00:46:39.620Z,24.47
2018-03-20T00:49:12.089Z,33.37
2018-03-20T00:51:44.404Z,23.80
2018-03-20T00:54:17.558Z,23.87
2018-03-20T00:56:50.757Z,25.93
2018-03-20T00:59:23.241Z,21.10
2018-03-20T01:01:55.703Z,33.80
2018-03-20T01:04:35.023Z,21.23
2018-03-20T01:07:07.644Z,25.93
2018-03-20T01:09:40.704Z,22.37
2018-03-20T01:12:13.293Z,21.40
2018-03-20T01:14:45.769Z,22.30
2018-03-20T01:17:18.168Z,22.80
2018-03-20T01:19:50.621Z,24.27
2018-03-20T01:22:22.932Z,25.50
2018-03-20T01:24:56.064Z,22.27
2018-03-20T01:27:28.367Z,19.13
2018-03-20T01:30:00.819Z,20.17
2018-03-20T01:32:33.275Z,18.20
2018-03-20T01:35:05.642Z,22.43
2018-03-20T01:37:37.993Z,23.93
2018-03-20T01:40:10.445Z,22.07
2018-03-20T01:42:42.836Z,24.83
2018-03-20T01:45:15.946Z,27.43
2018-03-20T01:47:48.205Z,18.43
2018-03-20T01:50:21.428Z,16.60
2018-03-20T01:53:06.307Z,27.07
2018-03-20T01:55:38.788Z,24.83
2018-03-20T01:58:11.173Z,22.80
2018-03-20T02:00:43.574Z,18.33
2018-03-20T02:03:16.044Z,19.53
2018-03-20T02:05:48.539Z,22.57
2018-03-20T02:08:20.926Z,21.07
2018-03-20T02:10:53.235Z,18.63
2018-03-20T02:13:26.516Z,22.53
2018-03-20T02:15:58.808Z,27.30
2018-03-20T02:18:31.326Z,26.23
2018-03-20T02:21:03.701Z,20.30
2018-03-20T02:23:36.145Z,17.90
2018-03-20T02:26:09.287Z,17.47
2018-03-20T02:28:41.800Z,22.27
2018-03-20T02:31:14.953Z,21.07
2018-03-20T02:33:47.222Z,21.07
2018-03-20T02:36:20.393Z,20.37
2018-03-20T02:38:53.616Z,24.53
2018-03-20T02:41:26.025Z,20.73
2018-03-20T02:43:58.424Z,19.73
2018-03-20T02:46:32.924Z,24.20
2018-03-20T02:49:05.981Z,21.43
2018-03-20T02:51:38.236Z,22.33
2018-03-20T02:54:11.396Z,21.83
2018-03-20T02:56:43.870Z,24.33
2018-03-20T02:59:16.308Z,20.43
2018-03-20T03:01:49.483Z,20.67
2018-03-20T03:04:21.922Z,22.53
2018-03-20T03:06:54.331Z,19.03
2018-03-20T03:09:26.811Z,16.43
2018-03-20T03:11:59.920Z,17.00
2018-03-20T03:14:33.128Z,14.37
2018-03-20T03:17:05.516Z,23.03
2018-03-20T03:19:37.856Z,22.23
2018-03-20T03:22:10.206Z,16.93
2018-03-20T03:24:42.647Z,18.60
2018-03-20T03:27:15.117Z,22.53
2018-03-20T03:29:47.512Z,19.57
2018-03-20T03:32:20.628Z,17.47
2018-03-20T03:34:53.083Z,17.50
2018-03-20T03:37:26.942Z,14.33
2018-03-20T03:39:59.370Z,14.77
2018-03-20T03:42:31.936Z,18.03
2018-03-20T03:45:04.368Z,20.70
2018-03-20T03:47:36.691Z,17.43
2018-03-20T03:50:09.974Z,19.77
2018-03-20T03:52:42.277Z,15.63
2018-03-20T03:55:14.829Z,22.03
2018-03-20T03:57:47.203Z,20.67
2018-03-20T04:00:20.432Z,18.10
2018-03-20T04:02:52.777Z,21.10
2018-03-20T04:05:25.961Z,14.93
2018-03-20T04:07:58.231Z,18.77
2018-03-20T04:10:31.326Z,19.30
2018-03-20T04:13:04.518Z,14.43
2018-03-20T04:15:36.984Z,16.03
2018-03-20T04:18:09.369Z,20.07
2018-03-20T04:20:41.843Z,18.37
2018-03-20T04:23:14.268Z,19.30
2018-03-20T04:25:46.878Z,17.23
2018-03-20T04:28:19.134Z,22.00
2018-03-20T04:30:52.708Z,20.90
2018-03-20T04:33:26.025Z,17.70
2018-03-20T04:35:58.490Z,15.03
2018-03-20T04:38:31.508Z,16.30
2018-03-20T04:41:04.006Z,17.83
2018-03-20T04:43:36.399Z,16.00
2018-03-20T04:46:08.849Z,16.90
2018-03-20T04:48:41.238Z,17.50
2018-03-20T04:51:20.473Z,14.87
2018-03-20T04:53:52.842Z,14.90
2018-03-20T04:56:25.425Z,16.00
2018-03-20T04:58:57.833Z,14.30
2018-03-20T05:01:33.449Z,16.10
2018-03-20T05:04:05.984Z,14.23
2018-03-20T05:06:38.444Z,28.77
2018-03-20T05:09:10.827Z,21.73
2018-03-20T05:11:44.038Z,14.83
2018-03-20T05:14:16.397Z,16.80
2018-03-20T05:16:48.899Z,13.97
2018-03-20T05:19:27.493Z,17.37
2018-03-20T05:25:02.719Z,17.33
2018-03-20T05:27:35.176Z,16.80
2018-03-20T05:30:08.221Z,19.70
2018-03-20T05:32:40.746Z,14.30
2018-03-20T05:35:13.900Z,19.93
2018-03-20T05:37:46.614Z,15.53
2018-03-20T05:40:19.717Z,17.47
2018-03-20T05:42:53.221Z,24.53
2018-03-20T05:45:26.276Z,33.20
2018-03-20T05:48:04.839Z,18.50
2018-03-20T05:53:39.572Z,17.67
2018-03-20T05:56:11.904Z,22.77
2018-03-20T05:58:44.237Z,19.17
2018-03-20T06:01:16.620Z,25.10
2018-03-20T06:03:49.049Z,21.50
2018-03-20T06:06:21.531Z,13.90
2018-03-20T06:08:54.992Z,17.37
2018-03-20T06:11:28.026Z,16.87
2018-03-20T06:14:00.624Z,19.40
2018-03-20T06:16:32.901Z,19.53
2018-03-20T06:19:05.209Z,12.97
2018-03-20T06:21:38.405Z,17.30
2018-03-20T06:24:10.762Z,15.13
2018-03-20T06:26:43.128Z,21.40
2018-03-20T06:29:15.590Z,14.40
2018-03-20T06:31:48.037Z,16.43
2018-03-20T06:34:21.337Z,25.73
2018-03-20T06:36:53.749Z,20.43
2018-03-20T06:39:26.150Z,15.37
2018-03-20T06:41:58.531Z,19.57
2018-03-20T06:44:31.754Z,19.23
2018-03-20T06:47:04.913Z,17.73
2018-03-20T06:49:37.515Z,21.70
2018-03-20T06:52:10.092Z,19.50
2018-03-20T06:54:42.411Z,32.13
2018-03-20T06:57:16.711Z,21.37
2018-03-20T06:59:49.135Z,20.33
2018-03-20T07:02:21.489Z,17.60
2018-03-20T07:04:53.937Z,24.97
2018-03-20T07:07:26.493Z,18.30
2018-03-20T07:09:58.834Z,18.47
2018-03-20T07:12:31.235Z,19.40
2018-03-20T07:15:04.464Z,16.57
2018-03-20T07:17:36.868Z,16.57
2018-03-20T07:20:09.316Z,19.57
2018-03-20T07:22:41.679Z,22.30
2018-03-20T07:25:13.932Z,21.57
2018-03-20T07:27:46.292Z,24.13
2018-03-20T07:30:19.446Z,26.73
2018-03-20T07:32:51.906Z,20.53
2018-03-20T07:35:25.186Z,23.27
2018-03-20T07:37:57.560Z,20.97
2018-03-20T07:40:30.127Z,22.27
2018-03-20T07:43:02.648Z,23.77
2018-03-20T07:45:35.052Z,23.23
2018-03-20T07:48:07.524Z,25.73
2018-03-20T07:50:40.593Z,23.27
2018-03-20T07:53:13.181Z,22.73
2018-03-20T07:55:45.534Z,25.60
2018-03-20T07:58:17.928Z,25.13
2018-03-20T08:00:50.334Z,23.33
2018-03-20T08:03:22.806Z,23.63
2018-03-20T08:05:55.488Z,18.50
2018-03-20T08:08:27.856Z,25.47
2018-03-20T08:11:00.208Z,27.07
2018-03-20T08:13:32.803Z,22.60
2018-03-20T08:16:05.260Z,21.03
2018-03-20T08:18:37.660Z,26.73
2018-03-20T08:21:10.096Z,27.27
2018-03-20T08:23:42.444Z,26.17
2018-03-20T08:26:15.005Z,22.50
2018-03-20T08:28:47.396Z,19.30
2018-03-20T08:31:19.847Z,23.20
2018-03-20T08:33:52.153Z,28.70
2018-03-20T08:36:25.211Z,21.47
2018-03-20T08:38:58.055Z,25.73
2018-03-20T08:41:31.142Z,22.63
2018-03-20T08:44:04.401Z,24.10
2018-03-20T08:46:37.453Z,19.27
2018-03-20T08:49:09.945Z,19.40
2018-03-20T08:51:44.375Z,23.10
2018-03-20T08:54:16.724Z,25.60
2018-03-20T08:56:49.839Z,19.67
2018-03-20T08:59:22.192Z,21.50
2018-03-20T09:01:54.515Z,25.00
2018-03-20T09:04:27.204Z,22.03
2018-03-20T09:06:59.681Z,20.60
2018-03-20T09:09:32.170Z,24.60
2018-03-20T09:12:05.347Z,21.93
2018-03-20T09:14:38.010Z,25.40
2018-03-20T09:17:10.436Z,22.03
2018-03-20T09:19:43.592Z,25.60
2018-03-20T09:22:16.144Z,27.33
2018-03-20T09:24:55.444Z,26.40
2018-03-20T09:27:27.812Z,21.97
2018-03-20T09:30:01.045Z,27.43
2018-03-20T09:32:33.708Z,25.40
2018-03-20T09:35:06.228Z,25.70
2018-03-20T09:37:38.887Z,21.50
2018-03-20T09:40:12.096Z,23.97
2018-03-20T09:42:44.609Z,30.27
2018-03-20T09:45:17.656Z,29.77
2018-03-20T09:47:59.715Z,26.63
2018-03-20T09:50:32.174Z,33.70
2018-03-20T09:53:04.547Z,25.13
2018-03-20T09:55:36.888Z,28.63
2018-03-20T09:58:09.305Z,28.13
2018-03-20T10:00:42.593Z,27.80
2018-03-20T10:03:15.170Z,24.90
2018-03-20T10:05:48.194Z,23.40
2018-03-20T10:08:20.624Z,21.90
2018-03-20T10:10:53.037Z,22.57
2018-03-20T10:13:25.373Z,23.13
2018-03-20T10:15:57.745Z,25.10
2018-03-20T10:18:30.225Z,28.20
2018-03-20T10:21:02.655Z,25.90
2018-03-20T10:23:35.077Z,24.03
2018-03-20T10:26:08.137Z,24.80
2018-03-20T10:28:40.582Z,27.97
2018-03-20T10:31:14.500Z,26.27
2018-03-20T10:33:46.960Z,30.00
2018-03-20T10:36:19.415Z,42.17
2018-03-20T10:38:51.752Z,37.03
2018-03-20T10:41:24.128Z,27.73
2018-03-20T10:43:57.292Z,24.00
2018-03-20T10:46:29.764Z,27.87
2018-03-20T10:49:02.205Z,30.40
2018-03-20T10:51:34.489Z,29.47
2018-03-20T10:54:06.918Z,29.57
2018-03-20T10:56:39.380Z,27.53
2018-03-20T10:59:12.577Z,26.40
2018-03-20T11:01:44.925Z,29.83
2018-03-20T11:04:17.456Z,28.13
2018-03-20T11:06:49.685Z,25.77
2018-03-20T11:09:22.902Z,32.10
2018-03-20T11:11:55.156Z,28.77
2018-03-20T11:14:27.585Z,21.10
2018-03-20T11:17:00.127Z,27.33
2018-03-20T11:19:33.041Z,25.50
2018-03-20T11:22:14.573Z,27.43
2018-03-20T11:24:46.905Z,28.43
2018-03-20T11:27:19.495Z,25.63
2018-03-20T11:29:52.604Z,30.57
2018-03-20T11:32:25.862Z,28.50
2018-03-20T11:34:58.137Z,31.13
2018-03-20T11:37:30.473Z,30.63
2018-03-20T11:40:02.953Z,24.20
2018-03-20T11:42:36.040Z,30.00
2018-03-20T11:45:08.432Z,24.10
2018-03-20T11:47:40.786Z,26.27
2018-03-20T11:50:13.264Z,26.67
2018-03-20T11:52:45.748Z,29.27
2018-03-20T11:55:18.112Z,32.63
2018-03-20T11:57:50.545Z,40.77
2018-03-20T12:00:23.066Z,34.77
2018-03-20T12:02:56.166Z,28.97
2018-03-20T12:05:28.584Z,33.10
2018-03-20T12:08:13.445Z,32.43
2018-03-20T12:10:47.191Z,37.70
2018-03-20T12:13:20.179Z,27.37
2018-03-20T12:15:52.588Z,23.93
2018-03-20T12:18:25.872Z,22.83
2018-03-20T12:20:58.969Z,29.37
2018-03-20T12:23:31.308Z,34.93
2018-03-20T12:26:03.777Z,35.17
2018-03-20T12:28:36.270Z,27.53
2018-03-20T12:31:08.725Z,32.40
2018-03-20T12:33:41.124Z,24.63
2018-03-20T12:36:13.527Z,24.70
2018-03-20T12:38:45.860Z,24.70
2018-03-20T12:41:18.226Z,26.47
2018-03-20T12:43:50.642Z,25.87
2018-03-20T12:46:23.004Z,29.97
2018-03-20T12:48:55.396Z,36.13
2018-03-20T12:51:27.905Z,21.67
2018-03-20T12:54:00.941Z,27.83
2018-03-20T12:56:33.342Z,24.47
2018-03-20T12:59:05.959Z,22.00
2018-03-20T13:01:38.598Z,19.53
2018-03-20T13:04:10.944Z,29.83
2018-03-20T13:06:43.686Z,21.90
2018-03-20T13:09:16.160Z,20.37
2018-03-20T13:11:49.348Z,23.20
2018-03-20T13:14:22.337Z,25.27
2018-03-20T13:16:54.726Z,20.57
2018-03-20T13:19:27.100Z,22.67
2018-03-20T13:22:01.382Z,21.93
2018-03-20T13:24:35.793Z,22.10
2018-03-20T13:27:08.274Z,22.17
2018-03-20T13:29:43.630Z,23.00
2018-03-20T13:32:16.211Z,39.83
2018-03-20T13:34:48.589Z,19.97
2018-03-20T13:37:20.981Z,21.37
2018-03-20T13:39:53.456Z,20.80
2018-03-20T13:42:35.008Z,19.43
2018-03-20T13:45:07.881Z,17.80
2018-03-20T13:47:40.233Z,21.40
2018-03-20T13:50:12.647Z,22.43
2018-03-20T13:52:49.146Z,25.73
2018-03-20T13:55:17.664Z,16.87
2018-03-20T13:57:50.167Z,23.27
2018-03-20T14:00:22.526Z,30.57
2018-03-20T14:02:55.662Z,18.83
2018-03-20T14:05:28.084Z,21.03
2018-03-20T14:08:01.243Z,20.27
2018-03-20T14:10:34.549Z,19.40
2018-03-20T14:13:07.586Z,18.30
2018-03-20T14:15:40.127Z,14.83
2018-03-20T14:18:13.319Z,12.93
2018-03-20T14:20:45.639Z,21.90
2018-03-20T14:23:18.304Z,17.37
2018-03-20T14:25:50.756Z,15.90
2018-03-20T14:28:23.294Z,13.00
2018-03-20T14:30:55.948Z,12.80
2018-03-20T14:33:29.715Z,15.77
2018-03-20T14:36:02.097Z,17.13
2018-03-20T14:38:35.306Z,11.57
2018-03-20T14:41:08.341Z,15.53
2018-03-20T14:43:41.581Z,9.37
2018-03-20T14:46:14.074Z,12.23
2018-03-20T14:48:46.606Z,10.90
2018-03-20T14:51:19.749Z,9.40
2018-03-20T14:53:52.164Z,10.47
2018-03-20T14:56:24.577Z,7.10
2018-03-20T14:58:56.959Z,10.10
2018-03-20T15:01:29.978Z,10.60
2018-03-20T15:04:02.241Z,15.93
2018-03-20T15:06:34.682Z,12.10
2018-03-20T15:09:07.211Z,14.30
2018-03-20T15:11:39.615Z,11.20
2018-03-20T15:14:11.972Z,4.90
2018-03-20T15:17:19.249Z,8.33
2018-03-20T15:19:54.075Z,9.93
2018-03-20T15:22:27.088Z,7.40
2018-03-20T15:24:59.537Z,10.90
2018-03-20T15:27:31.898Z,3.30
2018-03-20T15:30:04.997Z,8.30
2018-03-20T15:32:37.397Z,2.30
2018-03-20T15:35:09.805Z,6.47
2018-03-20T15:37:42.164Z,7.37
2018-03-20T15:40:15.382Z,8.67
2018-03-20T15:42:47.750Z,18.13
2018-03-20T15:45:20.065Z,14.70
2018-03-20T15:47:53.994Z,7.93
2018-03-20T15:50:26.532Z,12.90
2018-03-20T15:52:58.928Z,14.63
2018-03-20T15:55:31.410Z,12.20
2018-03-20T15:58:03.734Z,8.70
2018-03-20T16:00:36.069Z,25.03
2018-03-20T16:03:08.384Z,27.30
2018-03-20T16:05:41.465Z,11.97
2018-03-20T16:08:13.792Z,30.17
2018-03-20T16:10:46.315Z,26.57
2018-03-20T16:13:19.603Z,20.40
2018-03-20T16:15:51.961Z,40.83
2018-03-20T16:18:24.395Z,25.00
2018-03-20T16:20:56.822Z,12.60
2018-03-20T16:23:29.133Z,33.97
2018-03-20T16:26:02.324Z,29.87
2018-03-20T16:28:34.755Z,7.67
2018-03-20T16:31:07.191Z,8.43
2018-03-20T16:33:39.456Z,9.20
2018-03-20T16:36:11.907Z,7.63
2018-03-20T16:38:44.334Z,29.03
2018-03-20T16:41:16.814Z,11.20
2018-03-20T16:43:49.129Z,5.60
2018-03-20T16:46:21.600Z,13.17
2018-03-20T16:48:54.434Z,5.17
2018-03-20T16:51:26.941Z,6.50
2018-03-20T16:53:59.382Z,10.10
2018-03-20T16:56:32.633Z,3.40
2018-03-20T16:59:05.777Z,29.23
2018-03-20T17:01:38.286Z,4.13
2018-03-20T17:04:10.681Z,2.93
2018-03-20T17:06:43.217Z,4.40
2018-03-20T17:09:15.506Z,3.23
2018-03-20T17:11:48.069Z,4.67
2018-03-20T17:14:20.577Z,9.03
2018-03-20T17:16:53.033Z,8.80
2018-03-20T17:19:25.825Z,11.00
2018-03-20T17:21:58.992Z,3.93
2018-03-20T17:24:32.065Z,4.73
2018-03-20T17:27:04.611Z,6.17
2018-03-20T17:29:36.936Z,2.90
2018-03-20T17:32:09.534Z,4.77
2018-03-20T17:34:42.765Z,3.10
2018-03-20T17:37:16.467Z,6.20
2018-03-20T17:39:49.251Z,1.97
2018-03-20T17:42:21.658Z,4.77
2018-03-20T17:44:54.733Z,2.00
2018-03-20T17:47:27.296Z,8.13
2018-03-20T17:50:00.504Z,5.47
2018-03-20T17:52:33.044Z,4.20
2018-03-20T17:55:06.280Z,2.70
2018-03-20T17:57:39.414Z,2.70
2018-03-20T18:00:12.580Z,2.70
2018-03-20T18:02:45.736Z,17.73
2018-03-20T18:05:18.552Z,4.87
2018-03-20T18:07:50.977Z,2.37
2018-03-20T18:10:24.072Z,7.30
2018-03-20T18:12:58.077Z,9.13
2018-03-20T18:15:31.600Z,7.47
2018-03-20T18:18:26.083Z,6.20
2018-03-20T18:27:29.761Z,6.60
2018-03-20T18:30:03.234Z,5.03
2018-03-20T18:32:39.220Z,6.67
2018-03-20T18:35:12.505Z,10.80
2018-03-20T18:37:45.241Z,4.60
2018-03-20T18:40:17.660Z,3.87
2018-03-20T18:42:50.038Z,4.70
2018-03-20T18:45:22.515Z,3.17
2018-03-20T18:47:54.991Z,6.10
2018-03-20T18:50:27.666Z,8.10
2018-03-20T18:53:08.792Z,3.67
2018-03-20T18:55:41.391Z,8.17
2018-03-20T18:58:16.283Z,6.17
2018-03-20T19:00:48.695Z,12.73
2018-03-20T19:03:21.165Z,14.30
2018-03-20T19:05:53.607Z,5.07
2018-03-20T19:08:32.082Z,4.03
2018-03-20T19:11:13.082Z,11.10
2018-03-20T19:13:57.650Z,6.60
2018-03-20T19:16:30.377Z,4.37
2018-03-20T19:19:02.904Z,5.33
2018-03-20T19:21:35.545Z,4.97
2018-03-20T19:24:07.900Z,7.13
2018-03-20T19:26:41.536Z,7.40
2018-03-20T19:29:14.773Z,5.80
2018-03-20T19:31:47.898Z,6.30
2018-03-20T19:34:21.003Z,8.53
2018-03-20T19:36:53.444Z,4.47
2018-03-20T19:39:25.791Z,5.33
2018-03-20T19:41:58.939Z,10.47
2018-03-20T19:44:31.617Z,4.53
2018-03-20T19:47:04.252Z,5.17
2018-03-20T19:49:37.450Z,5.23
2018-03-20T19:52:10.194Z,3.73
2018-03-20T19:54:43.381Z,2.37
2018-03-20T19:57:15.931Z,3.17
2018-03-20T19:59:49.547Z,4.80
2018-03-20T20:02:24.124Z,3.47
2018-03-20T20:04:56.754Z,4.47
2018-03-20T20:07:29.215Z,4.00
2018-03-20T20:10:01.867Z,4.00
2018-03-20T20:12:36.275Z,4.80
2018-03-20T20:15:08.918Z,5.03
2018-03-20T20:17:42.134Z,2.73
2018-03-20T20:20:15.240Z,4.60
2018-03-20T20:22:49.276Z,3.77
2018-03-20T20:25:22.076Z,2.80
2018-03-20T20:27:56.641Z,4.83
2018-03-20T20:30:30.109Z,3.77
2018-03-20T20:33:02.519Z,3.97
2018-03-20T20:35:34.814Z,7.77
2018-03-20T20:38:21.551Z,5.90
2018-03-20T20:40:54.655Z,9.00
2018-03-20T20:43:27.653Z,7.80
2018-03-20T20:46:00.529Z,6.10
2018-03-20T20:48:33.019Z,3.87
2018-03-20T20:51:05.967Z,8.83
2018-03-20T20:53:38.460Z,10.47
2018-03-20T20:56:10.837Z,5.97
2018-03-20T20:58:43.303Z,7.33
2018-03-20T21:01:17.054Z,8.97
2018-03-20T21:03:51.313Z,9.37
2018-03-20T21:06:24.530Z,4.00
2018-03-20T21:08:56.924Z,6.30
2018-03-20T21:11:29.516Z,6.07
2018-03-20T21:14:02.749Z,6.20
2018-03-20T21:16:36.721Z,7.83
2018-03-20T21:19:09.291Z,5.13
2018-03-20T21:21:41.980Z,8.37
2018-03-20T21:24:14.410Z,3.17
2018-03-20T21:26:46.898Z,12.30
2018-03-20T21:29:19.268Z,5.70
2018-03-20T21:31:51.516Z,24.97
2018-03-20T21:34:24.694Z,6.37
2018-03-20T21:36:57.071Z,9.80
2018-03-20T21:39:29.581Z,8.03
2018-03-20T21:42:02.882Z,6.53
2018-03-20T21:44:35.470Z,6.30
2018-03-20T21:47:08.571Z,7.87
2018-03-20T21:49:41.017Z,7.90
2018-03-20T21:52:14.267Z,12.77
2018-03-20T21:54:47.525Z,6.43
2018-03-20T21:57:20.842Z,10.40
2018-03-20T21:59:53.996Z,13.77
2018-03-20T22:02:27.286Z,7.37
2018-03-20T22:05:00.493Z,19.40
2018-03-20T22:07:32.953Z,14.73
2018-03-20T22:10:05.402Z,10.67
2018-03-20T22:12:37.795Z,9.63
2018-03-20T22:15:10.570Z,8.00
2018-03-20T22:17:43.719Z,7.70
2018-03-20T22:20:16.750Z,9.10
2018-03-20T22:22:49.236Z,6.50
2018-03-20T22:25:21.699Z,11.30
2018-03-20T22:27:54.242Z,12.10
2018-03-20T22:30:27.005Z,12.43
2018-03-20T22:32:59.328Z,6.10
2018-03-20T22:35:32.475Z,4.43
2018-03-20T22:38:05.024Z,11.93
2018-03-20T22:40:38.072Z,12.43
2018-03-20T22:43:11.261Z,7.83
2018-03-20T22:45:44.529Z,5.73
2018-03-20T22:48:16.966Z,5.90
2018-03-20T22:50:49.318Z,6.90
2018-03-20T22:53:21.996Z,8.70
2018-03-20T22:55:54.348Z,4.63
2018-03-20T22:58:26.728Z,12.43
2018-03-20T23:00:59.143Z,11.90
2018-03-20T23:03:31.557Z,5.60
2018-03-20T23:06:03.968Z,3.80
2018-03-20T23:08:37.038Z,4.70
2018-03-20T23:11:10.297Z,2.33
2018-03-20T23:13:42.751Z,7.67
2018-03-20T23:16:15.103Z,5.40
2018-03-20T23:18:47.353Z,6.00
2018-03-20T23:21:19.777Z,4.70
2018-03-20T23:23:52.196Z,5.67
2018-03-20T23:26:24.607Z,8.90
2018-03-20T23:28:57.078Z,7.50
2018-03-20T23:31:29.566Z,8.47
2018-03-20T23:34:02.550Z,6.03
2018-03-20T23:36:35.052Z,5.27
2018-03-20T23:39:07.468Z,8.50
2018-03-20T23:41:39.941Z,6.33
2018-03-20T23:44:12.204Z,7.53
2018-03-20T23:46:44.642Z,7.90
2018-03-20T23:49:17.218Z,7.27
2018-03-20T23:51:49.762Z,6.57
2018-03-20T23:54:22.226Z,10.30
2018-03-20T23:56:54.712Z,12.13
2018-03-20T23:59:27.327Z,5.57
